RJTR(METAR)
05/20 15:51
METAR RJTR 200651Z VRB02KT 10SM CLR 22/13 A2992 RMK AO2 SLP142
T02220133=
戻る
トップページへ戻る
IMOC Co,.Ltd.